Airfield :
LOGIN :

Register | Disclaimer

   EN    FR    IT 

 










Legend :    VFR   Marginal VFR   IFR   Intensive IFR   Very Intensive IFR
Visi :
Ceiling :
>= 8 km
>= 3000ft
5 to 8 km
1000 to 3000 ft
1500m to 5 km
500 to 1000 ft
800 to 1500m
200 to 500 ft
< 800m
< 200 ft
Symbols :   Thunderstorms  Fog  Heavy snow  Heavy precipitations  Wind > 20 kt
SIGMETs :     Misc.  Thunderstorms  Icing  Turbulence  Mountain Waves  Volcanic Ashes






- Airport Elevation : 425 ft
- IATA code : DTM


EDLW - Dortmund

CURRENT METAR :
  • 230120Z AUTO 23007KT 9999 // NCD 06/05 Q1024

EXPIRED METARs :
  • 230050Z AUTO 22007KT 9999 // FEW055/// 06/05 Q1024
  • 230020Z AUTO 23007KT 9000 // FEW200/// 06/05 Q1023
  • 222350Z AUTO 22007KT 9999 // FEW060/// 06/06 Q1023
  • 222320Z AUTO 22007KT 9999 // NCD 06/05 Q1023
  • 222250Z AUTO 22007KT 9999 // NCD 06/05 Q1023

TAF TAF EDLW
Valid from the 22 at 18:00 until the 23 at 18:00 UTC


221700Z 2218/2318 24009KT 9000 SCT010 OVC020
BECMG 2221/2224 25004KT



MET'MAP, your aeronautical weather chart ! - Copyright ORBIFLY December 2007 - Disclaimer

ORBIFLY MET'MAP TEAM :

Programming & Development : Alexandra Zaïnal
Concept & original design : Baudouin d'Aumeries
Assistance for programming : Marc-Olivier Méhu
Technical & hardware support : Manuel Goepfert

Contact : metmap@orbifly.com




SOURCES & CREDITS :

   NOAA